Jacksonville, IL (62650)

2:24 AM CDT on August 26, 2016 (GMT -0500)
Book Lane | | Change Station

Elev 663 ft 39.73 °N, 90.26 °W | Updated 8 seconds ago

Mostly Cloudy
Mostly Cloudy
71.6 °F
Feels Like 71.6 °F
N
0.0
Wind Variable Wind from NNE
Gusts 0.0 mph

Today
High -- | Low -- °F
--% Chance of Precip.
Yesterday
High -- | Low -- °F
Precip. -- in
Pressure 30.08 in
Visibility 10.0 miles
Clouds Scattered Clouds 2000 ft
Mostly Cloudy 2500 ft
Mostly Cloudy 3600 ft
Dew Point 68 °F
Humidity 88%
Rainfall 0.24 in
Snow Depth Not available.
6:23 AM 7:40 PM
Last Quarter, 37% visible
METAR KIJX 260715Z AUTO 04005KT 10SM SCT020 BKN025 BKN036 22/21 A3008 RMK AO2 LTG DSNT NE AND E T02220212
Pressure 30.08 in
Visibility 10.0 miles
Clouds Scattered Clouds 2000 ft
Mostly Cloudy 2500 ft
Mostly Cloudy 3600 ft
Dew Point 68 °F
Humidity 88%
Rainfall 0.24 in
Snow Depth Not available.
6:23 AM 7:40 PM
Last Quarter, 37% visible
METAR KIJX 260715Z AUTO 04005KT 10SM SCT020 BKN025 BKN036 22/21 A3008 RMK AO2 LTG DSNT NE AND E T02220212

10-Day Weather Forecast

Almanac

Astronomy

Aug. 26, 2016 Rise Set
Actual Time
Civil Twilight
Nautical Twilight
Astronomical Twilight
Moon
Length of Visible Light
Length of Day
Tomorrow will be .
, % of the Moon is Illuminated

Today's Extremes

State Highs State Lows

Community

WunderPhotos

Upload Photos

1,935,062 photos uploaded!

WunderBlog® & News

Nearby

Air Quality

  Air Quality AQ Index Pollutant
Not available.

Snow Depth

Station Depth Elevation

Earthquake Activity

City Distance Mag. Time & Date
Minimum magnitude displayed is 2.5.

Coastal Water Temperatures

Place Temperature

Stations

Nearby Weather Stations

Station Location Temp. Windchill Dew Point Humidity Wind Precip. Elev Updated Type
                   

Watches & Warnings

There are currently no watches in effect.